Time;durP1;ratioP1;P1;durP2;ratioP2;P2;SDS_P1;SDS_P2;PMS_P1;PMS_P2;Temp;Humidity;BMP_temperature;BMP_pressure;BME280_temperature;BME280_humidity;BME280_pressure;Samples;Min_cycle;Max_cycle;Signal;HPM_P1;HPM_P2
2020/12/05 00:01:21;;;;;;;9.70;7.30;;;;;;;;;;5098913;28;20649;-56
2020/12/05 00:03:47;;;;;;;10.05;6.97;;;;;;;;;;5085707;28;20254;-56
2020/12/05 00:06:13;;;;;;;8.73;6.57;;;;;;;;;;5091082;28;20177;-56
2020/12/05 00:08:39;;;;;;;8.13;6.40;;;;;;;;;;5081180;28;20178;-56
2020/12/05 00:11:04;;;;;;;8.48;6.78;;;;;;;;;;5090477;28;20194;-56
2020/12/05 00:13:30;;;;;;;9.00;6.85;;;;;;;;;;5091537;28;20252;-56
2020/12/05 00:15:56;;;;;;;7.97;6.57;;;;;;;;;;5096551;28;20177;-56
2020/12/05 00:18:22;;;;;;;12.27;7.38;;;;;;;;;;5098476;28;20538;-56
2020/12/05 00:20:48;;;;;;;9.07;6.40;;;;;;;;;;5098320;28;20231;-56
2020/12/05 00:23:14;;;;;;;8.00;6.47;;;;;;;;;;5094262;28;20196;-56
2020/12/05 00:25:40;;;;;;;7.15;6.45;;;;;;;;;;5096963;28;20173;-56
2020/12/05 00:28:06;;;;;;;8.68;6.45;;;;;;;;;;5091678;28;20174;-56
2020/12/05 00:30:33;;;;;;;7.97;6.22;;;;;;;;;;5098234;28;20170;-56
2020/12/05 00:33:02;;;;;;;8.88;6.82;;;;;;;;;;5094292;28;20243;-56
2020/12/05 00:35:28;;;;;;;7.70;6.78;;;;;;;;;;5099662;28;20218;-56
2020/12/05 00:37:55;;;;;;;9.63;6.75;;;;;;;;;;5103134;28;20190;-56
2020/12/05 00:40:21;;;;;;;7.47;6.05;;;;;;;;;;5097930;28;20573;-56
2020/12/05 00:42:47;;;;;;;7.75;6.57;;;;;;;;;;5097862;28;20178;-56
2020/12/05 00:45:13;;;;;;;8.13;6.55;;;;;;;;;;5096238;28;20220;-55
2020/12/05 00:47:39;;;;;;;7.60;6.25;;;;;;;;;;5095696;28;20177;-55
2020/12/05 00:50:05;;;;;;;8.70;6.47;;;;;;;;;;5098208;28;20243;-56
2020/12/05 00:52:31;;;;;;;7.93;6.22;;;;;;;;;;5092920;28;20244;-56
2020/12/05 00:54:57;;;;;;;9.45;6.45;;;;;;;;;;5096300;28;20173;-56
2020/12/05 00:57:23;;;;;;;7.10;6.30;;;;;;;;;;5094185;28;20206;-56
2020/12/05 00:59:49;;;;;;;6.95;6.22;;;;;;;;;;5090686;28;20212;-56
2020/12/05 01:02:15;;;;;;;7.00;6.03;;;;;;;;;;5096169;28;20198;-56
2020/12/05 01:04:41;;;;;;;7.60;5.90;;;;;;;;;;5094117;28;20238;-56
2020/12/05 01:07:07;;;;;;;7.15;6.15;;;;;;;;;;5096999;28;20260;-56
2020/12/05 01:09:33;;;;;;;7.22;5.72;;;;;;;;;;5086734;28;20185;-57
2020/12/05 01:11:59;;;;;;;6.85;5.93;;;;;;;;;;5093969;28;20575;-56
2020/12/05 01:14:25;;;;;;;8.48;6.43;;;;;;;;;;5091919;28;20178;-56
2020/12/05 01:16:52;;;;;;;7.35;6.13;;;;;;;;;;5077934;28;20198;-56
2020/12/05 01:19:18;;;;;;;6.97;6.07;;;;;;;;;;5077872;28;20454;-56
2020/12/05 01:21:47;;;;;;;6.53;5.85;;;;;;;;;;5077806;28;20190;-56
2020/12/05 01:24:13;;;;;;;7.18;6.47;;;;;;;;;;5091790;28;20236;-56
2020/12/05 01:26:39;;;;;;;6.78;6.07;;;;;;;;;;5097522;28;20553;-56
2020/12/05 01:29:05;;;;;;;7.07;5.72;;;;;;;;;;5097508;28;20186;-56
2020/12/05 01:31:30;;;;;;;7.47;5.93;;;;;;;;;;5097633;28;20162;-56
2020/12/05 01:34:02;;;;;;;6.60;5.82;;;;;;;;;;5090405;28;20570;-56
2020/12/05 01:36:28;;;;;;;6.47;5.50;;;;;;;;;;5101965;28;20417;-56
2020/12/05 01:38:54;;;;;;;6.60;5.82;;;;;;;;;;5080683;28;20208;-56
2020/12/05 01:41:20;;;;;;;7.20;5.70;;;;;;;;;;5076008;28;20240;-56
2020/12/05 01:43:46;;;;;;;5.82;5.15;;;;;;;;;;5085595;28;20200;-56
2020/12/05 01:46:22;;;;;;;7.00;5.68;;;;;;;;;;5081243;28;20178;-56
2020/12/05 01:48:48;;;;;;;6.28;5.25;;;;;;;;;;5096750;28;20456;-56
2020/12/05 01:51:14;;;;;;;5.95;5.35;;;;;;;;;;5096895;28;20170;-56
2020/12/05 01:53:40;;;;;;;6.13;5.40;;;;;;;;;;5096953;28;20261;-56
2020/12/05 01:56:06;;;;;;;6.40;5.65;;;;;;;;;;5095251;28;20488;-56
2020/12/05 01:58:32;;;;;;;6.35;5.55;;;;;;;;;;5096232;28;20189;-56
2020/12/05 02:00:58;;;;;;;6.40;5.70;;;;;;;;;;5097160;28;20216;-56
2020/12/05 02:03:24;;;;;;;6.43;5.55;;;;;;;;;;5091109;28;20174;-56
2020/12/05 02:06:06;;;;;;;6.38;5.32;;;;;;;;;;5085252;28;20497;-56
2020/12/05 02:08:50;;;;;;;7.78;6.15;;;;;;;;;;5095212;28;20181;-56
2020/12/05 02:11:18;;;;;;;6.30;5.70;;;;;;;;;;5099001;28;20180;-56
2020/12/05 02:13:46;;;;;;;6.00;5.03;;;;;;;;;;5096345;28;20409;-56
2020/12/05 02:16:13;;;;;;;5.80;5.20;;;;;;;;;;5095437;28;20162;-56
2020/12/05 02:18:39;;;;;;;6.40;5.45;;;;;;;;;;5095372;28;20240;-56
2020/12/05 02:21:05;;;;;;;5.68;5.00;;;;;;;;;;5092012;28;20198;-56
2020/12/05 02:23:32;;;;;;;5.68;5.10;;;;;;;;;;5082258;28;20185;-56
2020/12/05 02:26:09;;;;;;;5.63;5.03;;;;;;;;;;5096392;28;20212;-56
2020/12/05 02:28:35;;;;;;;6.13;5.53;;;;;;;;;;5095930;28;20223;-56
2020/12/05 02:31:01;;;;;;;5.63;5.00;;;;;;;;;;5077707;28;20245;-56
2020/12/05 02:33:27;;;;;;;6.10;5.40;;;;;;;;;;5082228;28;20173;-56
2020/12/05 02:35:53;;;;;;;5.22;4.72;;;;;;;;;;5090759;28;20547;-56
2020/12/05 02:38:39;;;;;;;5.88;4.88;;;;;;;;;;5083636;28;20215;-56
2020/12/05 02:41:06;;;;;;;5.53;4.82;;;;;;;;;;5095160;28;20235;-56
2020/12/05 02:43:33;;;;;;;5.25;4.75;;;;;;;;;;5088980;28;20220;-56
2020/12/05 02:45:59;;;;;;;5.00;4.55;;;;;;;;;;5081802;28;20453;-56
2020/12/05 02:48:25;;;;;;;5.53;5.00;;;;;;;;;;5088837;28;20257;-56
2020/12/05 02:50:51;;;;;;;5.80;4.75;;;;;;;;;;5096221;28;20434;-56
2020/12/05 02:53:17;;;;;;;5.30;4.80;;;;;;;;;;5095570;28;20256;-56
2020/12/05 02:55:43;;;;;;;6.15;5.07;;;;;;;;;;5099910;28;20265;-56
2020/12/05 02:58:09;;;;;;;5.70;4.95;;;;;;;;;;5099935;28;20169;-56
2020/12/05 03:00:35;;;;;;;5.40;4.90;;;;;;;;;;5100479;28;20201;-56
2020/12/05 03:03:02;;;;;;;4.95;4.43;;;;;;;;;;5087811;28;20452;-56
2020/12/05 03:05:28;;;;;;;5.20;4.70;;;;;;;;;;5099797;28;20158;-56
2020/12/05 03:07:54;;;;;;;5.22;4.72;;;;;;;;;;5099757;28;20174;-56
2020/12/05 03:10:20;;;;;;;5.55;5.05;;;;;;;;;;5091852;28;20184;-56
2020/12/05 03:12:46;;;;;;;5.35;4.85;;;;;;;;;;5090914;28;20183;-56
2020/12/05 03:15:12;;;;;;;5.22;4.72;;;;;;;;;;5087474;28;20668;-56
2020/12/05 03:17:38;;;;;;;5.22;4.72;;;;;;;;;;5085807;28;20189;-56
2020/12/05 03:20:06;;;;;;;5.20;4.70;;;;;;;;;;5100272;28;20299;-56
2020/12/05 03:22:32;;;;;;;4.93;4.43;;;;;;;;;;5090205;28;20260;-56
2020/12/05 03:24:58;;;;;;;4.80;4.40;;;;;;;;;;5098846;28;20253;-56
2020/12/05 03:27:24;;;;;;;5.15;4.50;;;;;;;;;;5099629;28;20252;-56
2020/12/05 03:29:54;;;;;;;5.07;4.57;;;;;;;;;;5092714;28;20548;-56
2020/12/05 03:32:24;;;;;;;5.38;4.82;;;;;;;;;;5087596;28;20170;-56
2020/12/05 03:34:50;;;;;;;5.25;4.75;;;;;;;;;;5097925;28;20256;-56
2020/12/05 03:37:16;;;;;;;4.63;4.18;;;;;;;;;;5106276;28;20254;-56
2020/12/05 03:39:42;;;;;;;5.03;4.38;;;;;;;;;;5099896;28;20521;-56
2020/12/05 03:42:08;;;;;;;5.30;4.80;;;;;;;;;;5091634;28;20173;-56
2020/12/05 03:44:34;;;;;;;4.57;4.18;;;;;;;;;;5098923;28;20162;-56
2020/12/05 03:47:00;;;;;;;4.82;4.32;;;;;;;;;;5099001;28;20584;-56
2020/12/05 03:49:32;;;;;;;5.18;4.22;;;;;;;;;;5099465;28;20209;-56
2020/12/05 03:52:01;;;;;;;4.90;4.32;;;;;;;;;;5097477;28;20180;-56
2020/12/05 03:54:28;;;;;;;4.43;4.03;;;;;;;;;;5086556;28;20178;-56
2020/12/05 03:56:53;;;;;;;5.05;4.55;;;;;;;;;;5078812;28;20190;-56
2020/12/05 03:59:20;;;;;;;5.10;4.60;;;;;;;;;;5097132;28;20182;-56
2020/12/05 04:01:46;;;;;;;5.00;4.50;;;;;;;;;;5095052;28;20507;-56
2020/12/05 04:04:12;;;;;;;4.78;4.22;;;;;;;;;;5095097;28;20182;-56
2020/12/05 04:06:38;;;;;;;4.55;4.15;;;;;;;;;;5098934;28;20177;-56
2020/12/05 04:09:04;;;;;;;4.53;4.03;;;;;;;;;;5080477;28;20174;-56
2020/12/05 04:11:30;;;;;;;4.63;4.20;;;;;;;;;;5080285;28;20183;-56
2020/12/05 04:13:56;;;;;;;4.40;4.00;;;;;;;;;;5095347;28;20269;-55
2020/12/05 04:16:22;;;;;;;5.25;4.47;;;;;;;;;;5097378;28;20688;-55
2020/12/05 04:18:48;;;;;;;5.05;4.55;;;;;;;;;;5098889;28;20178;-55
2020/12/05 04:21:14;;;;;;;4.70;4.28;;;;;;;;;;5098571;28;20246;-55
2020/12/05 04:23:40;;;;;;;4.57;4.18;;;;;;;;;;5093879;28;20251;-55
2020/12/05 04:26:06;;;;;;;5.47;4.25;;;;;;;;;;5097357;28;20249;-55
2020/12/05 04:28:32;;;;;;;4.55;4.03;;;;;;;;;;5098115;28;20615;-55
2020/12/05 04:30:58;;;;;;;4.90;4.50;;;;;;;;;;5078764;28;20201;-55
2020/12/05 04:33:24;;;;;;;4.35;3.95;;;;;;;;;;5095471;28;20210;-56
2020/12/05 04:35:50;;;;;;;4.50;4.10;;;;;;;;;;5100638;28;20256;-56
2020/12/05 04:38:16;;;;;;;4.80;4.07;;;;;;;;;;5089018;28;20182;-56
2020/12/05 04:40:42;;;;;;;4.63;4.22;;;;;;;;;;5098527;28;20228;-56
2020/12/05 04:43:08;;;;;;;4.57;3.92;;;;;;;;;;5093066;28;20252;-56
2020/12/05 04:45:34;;;;;;;4.80;4.32;;;;;;;;;;5097109;28;20185;-55
2020/12/05 04:48:02;;;;;;;4.53;4.13;;;;;;;;;;5097853;28;20227;-55
2020/12/05 04:50:29;;;;;;;4.22;3.83;;;;;;;;;;5098440;28;20464;-55
2020/12/05 04:53:07;;;;;;;4.28;3.88;;;;;;;;;;5094323;28;20236;-55
2020/12/05 04:55:38;;;;;;;4.57;4.18;;;;;;;;;;5096150;28;20200;-56
2020/12/05 04:58:05;;;;;;;4.25;3.85;;;;;;;;;;5097795;28;20606;-56
2020/12/05 05:00:31;;;;;;;4.32;3.92;;;;;;;;;;5098002;28;20251;-56
2020/12/05 05:03:05;;;;;;;3.78;3.47;;;;;;;;;;5082507;28;20182;-56
2020/12/05 05:05:31;;;;;;;4.28;3.88;;;;;;;;;;5084630;28;20178;-56
2020/12/05 05:07:56;;;;;;;4.18;3.72;;;;;;;;;;5077238;28;20320;-56
2020/12/05 05:10:32;;;;;;;4.57;4.00;;;;;;;;;;5077915;28;20171;-56
2020/12/05 05:15:41;;;;;;;4.63;4.22;;;;;;;;;;5086981;28;20182;-56
2020/12/05 05:18:07;;;;;;;4.68;4.18;;;;;;;;;;5087509;28;20210;-56
2020/12/05 05:20:37;;;;;;;3.97;3.67;;;;;;;;;;5077634;28;20195;-56
2020/12/05 05:23:21;;;;;;;4.40;4.00;;;;;;;;;;5080283;28;20269;-55
2020/12/05 05:25:58;;;;;;;4.03;3.63;;;;;;;;;;5086932;28;20174;-55
2020/12/05 05:28:37;;;;;;;4.03;3.72;;;;;;;;;;5084765;28;20175;-55
2020/12/05 05:31:31;;;;;;;4.22;3.83;;;;;;;;;;5077496;28;20219;-55
2020/12/05 05:33:57;;;;;;;4.65;3.75;;;;;;;;;;5096257;28;20448;-55
2020/12/05 05:36:24;;;;;;;4.63;4.18;;;;;;;;;;5108118;28;20204;-55
2020/12/05 05:38:57;;;;;;;4.18;3.78;;;;;;;;;;5084470;28;20174;-55
2020/12/05 05:41:23;;;;;;;11.98;4.05;;;;;;;;;;5077885;28;20509;-55
2020/12/05 05:43:57;;;;;;;4.07;3.67;;;;;;;;;;5083974;28;20171;-55
2020/12/05 05:46:27;;;;;;;4.20;3.80;;;;;;;;;;5083203;28;20562;-55
2020/12/05 05:48:53;;;;;;;3.80;3.50;;;;;;;;;;5076904;28;20193;-55
2020/12/05 05:51:35;;;;;;;4.60;4.13;;;;;;;;;;5087618;28;20185;-55
2020/12/05 05:54:14;;;;;;;4.28;3.63;;;;;;;;;;5083287;28;20175;-55
2020/12/05 05:56:53;;;;;;;4.10;3.63;;;;;;;;;;5077060;28;20186;-55
2020/12/05 05:59:21;;;;;;;4.35;3.90;;;;;;;;;;5097160;28;20166;-55
2020/12/05 06:01:49;;;;;;;4.13;3.72;;;;;;;;;;5092975;28;20206;-55
2020/12/05 06:04:19;;;;;;;4.18;3.78;;;;;;;;;;5095501;28;20186;-55
2020/12/05 06:06:46;;;;;;;3.75;3.45;;;;;;;;;;5082844;28;20174;-55
2020/12/05 06:09:13;;;;;;;4.30;3.90;;;;;;;;;;5076829;28;20166;-55
2020/12/05 06:11:39;;;;;;;4.30;3.90;;;;;;;;;;5078773;28;20189;-55
2020/12/05 06:14:06;;;;;;;3.88;3.50;;;;;;;;;;5076625;28;20182;-56
2020/12/05 06:16:32;;;;;;;3.85;3.55;;;;;;;;;;5095246;28;20255;-56
2020/12/05 06:18:59;;;;;;;4.10;3.70;;;;;;;;;;5079451;28;20185;-56
2020/12/05 06:21:31;;;;;;;3.40;3.10;;;;;;;;;;5076316;28;20202;-56
2020/12/05 06:24:04;;;;;;;4.00;3.70;;;;;;;;;;5094350;28;20211;-56
2020/12/05 06:26:31;;;;;;;3.83;3.50;;;;;;;;;;5096641;28;20220;-56
2020/12/05 06:29:00;;;;;;;4.35;3.78;;;;;;;;;;5078910;28;20202;-56
2020/12/05 06:31:42;;;;;;;4.03;3.63;;;;;;;;;;5082582;28;20498;-56
2020/12/05 06:34:09;;;;;;;4.00;3.60;;;;;;;;;;5091385;28;20178;-56
2020/12/05 06:36:36;;;;;;;3.80;3.50;;;;;;;;;;5107179;28;20191;-56
2020/12/05 06:39:18;;;;;;;4.03;3.70;;;;;;;;;;5094308;28;20549;-56
2020/12/05 06:41:54;;;;;;;3.67;3.38;;;;;;;;;;5084600;28;20214;-56
2020/12/05 06:44:32;;;;;;;4.72;3.08;;;;;;;;;;5077397;28;20177;-56
2020/12/05 06:47:00;;;;;;;4.15;3.75;;;;;;;;;;5076533;28;20167;-56
2020/12/05 06:49:38;;;;;;;4.47;4.07;;;;;;;;;;5096340;28;20178;-56
2020/12/05 06:52:25;;;;;;;4.13;3.72;;;;;;;;;;5095403;28;20170;-56
2020/12/05 06:55:00;;;;;;;3.65;3.35;;;;;;;;;;5094415;28;20184;-56
2020/12/05 06:57:27;;;;;;;4.07;3.67;;;;;;;;;;5095827;28;20276;-56
2020/12/05 07:00:08;;;;;;;3.92;3.55;;;;;;;;;;5096379;28;20162;-56
2020/12/05 07:02:34;;;;;;;3.80;3.50;;;;;;;;;;5094647;28;20229;-56
2020/12/05 07:05:19;;;;;;;3.92;3.63;;;;;;;;;;5096052;28;20254;-56
2020/12/05 07:07:45;;;;;;;3.90;3.50;;;;;;;;;;5083289;28;20178;-56
2020/12/05 07:10:11;;;;;;;3.67;3.38;;;;;;;;;;5080099;28;20220;-56
2020/12/05 07:12:40;;;;;;;3.80;3.50;;;;;;;;;;5093946;28;20494;-56
2020/12/05 07:15:22;;;;;;;3.50;3.20;;;;;;;;;;5095010;28;20182;-56
2020/12/05 07:17:48;;;;;;;4.30;3.65;;;;;;;;;;5088972;28;20456;-56
2020/12/05 07:20:14;;;;;;;3.60;3.30;;;;;;;;;;5096364;28;20200;-56
2020/12/05 07:22:40;;;;;;;3.90;3.60;;;;;;;;;;5094288;28;20178;-56
2020/12/05 07:25:06;;;;;;;3.70;3.40;;;;;;;;;;5095520;28;20162;-56
2020/12/05 07:27:32;;;;;;;3.70;3.40;;;;;;;;;;5095835;28;20544;-56
2020/12/05 07:29:58;;;;;;;3.85;3.47;;;;;;;;;;5095038;28;20174;-56
2020/12/05 07:32:29;;;;;;;4.93;4.13;;;;;;;;;;5093909;28;20199;-56
2020/12/05 07:34:55;;;;;;;4.22;3.50;;;;;;;;;;5091535;28;20253;-55
2020/12/05 07:37:28;;;;;;;4.78;4.00;;;;;;;;;;5095429;28;20808;-55
2020/12/05 07:39:55;;;;;;;4.50;4.10;;;;;;;;;;5096746;28;20204;-55
2020/12/05 07:42:22;;;;;;;4.28;3.88;;;;;;;;;;5097767;28;20176;-55
2020/12/05 07:44:48;;;;;;;4.70;4.25;;;;;;;;;;5093030;28;20174;-55
2020/12/05 07:47:20;;;;;;;4.50;4.10;;;;;;;;;;5080089;28;20566;-55
2020/12/05 07:49:50;;;;;;;6.00;4.28;;;;;;;;;;5098686;28;20256;-55
2020/12/05 07:52:18;;;;;;;4.70;4.20;;;;;;;;;;5098772;28;20261;-55
2020/12/05 07:54:55;;;;;;;4.88;4.47;;;;;;;;;;5097249;28;20174;-55
2020/12/05 07:57:22;;;;;;;4.95;4.20;;;;;;;;;;5095456;28;20189;-55
2020/12/05 07:59:48;;;;;;;5.93;4.03;;;;;;;;;;5098633;28;20170;-56
2020/12/05 08:02:16;;;;;;;5.13;4.43;;;;;;;;;;5097554;28;20616;-55
2020/12/05 08:04:52;;;;;;;6.18;4.30;;;;;;;;;;5097126;28;20174;-55
2020/12/05 08:07:35;;;;;;;5.20;4.10;;;;;;;;;;5094889;28;20173;-55
2020/12/05 08:10:03;;;;;;;4.57;4.03;;;;;;;;;;5101770;28;20196;-55
2020/12/05 08:12:53;;;;;;;4.90;4.35;;;;;;;;;;5095021;28;20182;-55
2020/12/05 08:15:19;;;;;;;5.13;4.50;;;;;;;;;;5045364;28;20201;-55
2020/12/05 08:17:46;;;;;;;4.47;4.05;;;;;;;;;;5097278;28;20252;-56
2020/12/05 08:20:14;;;;;;;5.45;4.53;;;;;;;;;;5098476;28;20205;-55
2020/12/05 08:22:40;;;;;;;4.82;4.32;;;;;;;;;;5097874;28;20185;-55
2020/12/05 08:25:06;;;;;;;4.40;4.00;;;;;;;;;;5092475;28;20450;-55
2020/12/05 08:27:32;;;;;;;9.90;5.80;;;;;;;;;;5097590;28;20174;-55
2020/12/05 08:29:58;;;;;;;29.48;11.77;;;;;;;;;;5092829;28;20174;-55
2020/12/05 08:32:25;;;;;;;23.83;9.77;;;;;;;;;;5082429;28;20580;-55
2020/12/05 08:34:51;;;;;;;18.17;8.25;;;;;;;;;;5093293;28;20190;-55
2020/12/05 08:37:19;;;;;;;16.70;7.55;;;;;;;;;;5099726;28;20205;-55
2020/12/05 08:39:47;;;;;;;17.33;7.53;;;;;;;;;;5091089;28;20186;-55
2020/12/05 08:42:13;;;;;;;28.20;10.27;;;;;;;;;;5089822;28;20483;-55
2020/12/05 08:44:39;;;;;;;72.57;22.45;;;;;;;;;;5078213;28;20174;-55
2020/12/05 08:47:09;;;;;;;78.13;23.35;;;;;;;;;;5078180;28;20171;-55
2020/12/05 08:49:36;;;;;;;69.60;22.33;;;;;;;;;;5076021;28;20197;-43
2020/12/05 08:52:03;;;;;;;69.00;21.08;;;;;;;;;;5095538;28;20260;-43
2020/12/05 08:54:29;;;;;;;62.33;19.88;;;;;;;;;;5079905;28;20617;-43
2020/12/05 08:57:09;;;;;;;60.28;19.52;;;;;;;;;;5092092;28;20193;-43
2020/12/05 08:59:35;;;;;;;62.00;19.42;;;;;;;;;;5076422;28;20186;-43
2020/12/05 09:02:01;;;;;;;62.38;17.83;;;;;;;;;;5089829;28;20751;-43
2020/12/05 09:04:29;;;;;;;65.45;18.80;;;;;;;;;;5095671;28;20201;-43
2020/12/05 09:06:55;;;;;;;59.33;18.45;;;;;;;;;;5086661;28;20220;-43
2020/12/05 09:09:30;;;;;;;63.72;17.50;;;;;;;;;;5093386;28;20189;-43
2020/12/05 09:12:09;;;;;;;59.63;17.38;;;;;;;;;;5089855;28;20567;-43
2020/12/05 09:14:36;;;;;;;50.33;17.13;;;;;;;;;;5090857;28;20276;-43
2020/12/05 09:17:02;;;;;;;67.90;18.48;;;;;;;;;;5093555;28;20557;-43
2020/12/05 09:19:30;;;;;;;66.55;20.23;;;;;;;;;;5095653;28;20186;-43
2020/12/05 09:21:56;;;;;;;60.97;18.65;;;;;;;;;;5096349;28;20194;-44
2020/12/05 09:24:22;;;;;;;50.45;16.08;;;;;;;;;;5092943;28;20285;-44
2020/12/05 09:26:52;;;;;;;61.17;17.85;;;;;;;;;;5083129;28;20173;-44
2020/12/05 09:29:18;;;;;;;48.72;16.85;;;;;;;;;;5096659;28;20178;-44
2020/12/05 09:31:51;;;;;;;54.80;16.92;;;;;;;;;;5080371;28;20186;-43
2020/12/05 09:34:30;;;;;;;50.47;16.08;;;;;;;;;;5081300;28;20288;-43
2020/12/05 09:36:56;;;;;;;43.20;14.98;;;;;;;;;;5096869;28;20186;-43
2020/12/05 09:39:22;;;;;;;42.03;14.48;;;;;;;;;;5075904;28;20608;-43
2020/12/05 09:41:48;;;;;;;38.60;13.40;;;;;;;;;;5090824;28;20256;-43
2020/12/05 09:44:14;;;;;;;41.47;14.43;;;;;;;;;;5095233;28;20544;-44
2020/12/05 09:46:40;;;;;;;40.00;13.77;;;;;;;;;;5094871;28;20228;-44
2020/12/05 09:49:06;;;;;;;34.72;13.50;;;;;;;;;;5087184;28;20445;-44
2020/12/05 09:51:32;;;;;;;32.65;12.48;;;;;;;;;;5075395;28;20257;-44
2020/12/05 09:53:58;;;;;;;36.50;11.95;;;;;;;;;;5093048;28;20177;-43
2020/12/05 09:56:24;;;;;;;33.13;11.82;;;;;;;;;;5076006;28;20221;-43
2020/12/05 09:58:50;;;;;;;25.67;11.30;;;;;;;;;;5075961;28;20190;-43
2020/12/05 10:01:16;;;;;;;27.52;11.82;;;;;;;;;;5084287;28;20280;-43
2020/12/05 10:03:42;;;;;;;30.00;10.90;;;;;;;;;;5085431;28;20182;-43
2020/12/05 10:06:08;;;;;;;25.65;10.68;;;;;;;;;;5089318;28;20200;-43
2020/12/05 10:08:34;;;;;;;25.73;10.70;;;;;;;;;;5085159;28;20170;-43
2020/12/05 10:11:00;;;;;;;24.02;9.95;;;;;;;;;;5096256;28;20182;-43
2020/12/05 10:13:26;;;;;;;30.23;11.02;;;;;;;;;;5084804;28;20178;-43
2020/12/05 10:15:52;;;;;;;23.98;9.93;;;;;;;;;;5074903;28;20492;-43
2020/12/05 10:18:18;;;;;;;22.35;9.88;;;;;;;;;;5087008;28;20194;-43
2020/12/05 10:20:44;;;;;;;21.10;10.05;;;;;;;;;;5081093;28;20217;-44
2020/12/05 10:23:10;;;;;;;21.20;9.70;;;;;;;;;;5083838;28;20351;-44
2020/12/05 10:25:36;;;;;;;18.08;8.88;;;;;;;;;;5081183;28;20217;-43
2020/12/05 10:28:02;;;;;;;22.35;8.85;;;;;;;;;;5075859;28;20241;-43
2020/12/05 10:30:28;;;;;;;19.52;8.77;;;;;;;;;;5095318;28;20571;-43
2020/12/05 10:32:55;;;;;;;16.65;8.75;;;;;;;;;;5094171;28;20199;-43
2020/12/05 10:35:21;;;;;;;16.77;8.82;;;;;;;;;;5094784;28;20182;-43
2020/12/05 10:37:47;;;;;;;18.90;9.18;;;;;;;;;;5082382;28;20193;-43
2020/12/05 10:40:13;;;;;;;17.70;8.70;;;;;;;;;;5079331;28;20198;-43
2020/12/05 10:42:39;;;;;;;18.55;8.85;;;;;;;;;;5075079;28;20186;-43
2020/12/05 10:45:05;;;;;;;16.60;8.95;;;;;;;;;;5076384;28;20664;-43
2020/12/05 10:47:31;;;;;;;16.48;8.23;;;;;;;;;;5095278;28;20319;-45
2020/12/05 10:49:57;;;;;;;16.05;8.20;;;;;;;;;;5081722;28;20569;-45
2020/12/05 10:52:23;;;;;;;16.25;8.02;;;;;;;;;;5091651;28;20276;-45
2020/12/05 10:54:49;;;;;;;15.02;7.57;;;;;;;;;;5074498;28;20189;-45
2020/12/05 10:57:15;;;;;;;13.93;7.75;;;;;;;;;;5078945;28;20217;-45
2020/12/05 10:59:41;;;;;;;16.08;8.15;;;;;;;;;;5074834;28;20452;-44
2020/12/05 11:02:08;;;;;;;15.38;8.02;;;;;;;;;;5083224;28;20206;-44
2020/12/05 11:04:34;;;;;;;16.88;7.88;;;;;;;;;;5092186;28;20288;-44
2020/12/05 11:07:00;;;;;;;12.38;6.85;;;;;;;;;;5075235;28;20269;-44
2020/12/05 11:09:26;;;;;;;13.77;7.38;;;;;;;;;;5076182;28;20191;-44
2020/12/05 11:11:52;;;;;;;15.07;7.85;;;;;;;;;;5075236;28;20254;-45
2020/12/05 11:14:18;;;;;;;12.45;6.72;;;;;;;;;;5094810;28;20209;-45
2020/12/05 11:16:44;;;;;;;11.48;7.13;;;;;;;;;;5098930;28;20553;-44
2020/12/05 11:19:10;;;;;;;12.05;7.60;;;;;;;;;;5098491;28;20181;-45
2020/12/05 11:21:36;;;;;;;9.68;6.63;;;;;;;;;;5098313;28;20208;-45
2020/12/05 11:24:02;;;;;;;11.82;6.60;;;;;;;;;;5083308;28;20268;-45
2020/12/05 11:26:28;;;;;;;14.10;7.13;;;;;;;;;;5098985;28;20174;-45
2020/12/05 11:28:54;;;;;;;12.68;6.43;;;;;;;;;;5098040;28;20436;-45
2020/12/05 11:31:20;;;;;;;11.73;6.63;;;;;;;;;;5084654;28;20190;-45
2020/12/05 11:33:46;;;;;;;11.30;6.28;;;;;;;;;;5091581;28;20185;-45
2020/12/05 11:36:12;;;;;;;12.95;6.80;;;;;;;;;;5101965;28;20180;-45
2020/12/05 11:38:38;;;;;;;11.25;6.75;;;;;;;;;;5090768;28;20202;-45
2020/12/05 11:41:05;;;;;;;12.85;6.90;;;;;;;;;;5087200;28;20222;-45
2020/12/05 11:43:31;;;;;;;12.60;6.82;;;;;;;;;;5087808;28;20187;-45
2020/12/05 11:45:57;;;;;;;11.32;6.60;;;;;;;;;;5094667;28;20189;-45
2020/12/05 11:48:23;;;;;;;8.82;6.90;;;;;;;;;;5094923;28;20252;-45
2020/12/05 11:50:49;;;;;;;11.18;6.95;;;;;;;;;;5097723;28;20177;-45
2020/12/05 11:53:15;;;;;;;14.43;6.30;;;;;;;;;;5082944;28;20202;-44
2020/12/05 11:55:41;;;;;;;10.68;5.95;;;;;;;;;;5079087;28;20572;-44
2020/12/05 11:58:07;;;;;;;9.63;6.70;;;;;;;;;;5091534;28;20300;-44
2020/12/05 12:00:33;;;;;;;8.38;5.78;;;;;;;;;;5091478;28;20212;-44
2020/12/05 12:02:59;;;;;;;9.07;5.78;;;;;;;;;;5091668;28;20182;-46
2020/12/05 12:05:25;;;;;;;9.43;5.97;;;;;;;;;;5095718;28;20196;-45
2020/12/05 12:07:51;;;;;;;8.68;5.78;;;;;;;;;;5096031;28;20178;-45
2020/12/05 12:10:17;;;;;;;9.93;5.70;;;;;;;;;;5098066;28;20200;-44
2020/12/05 12:12:43;;;;;;;9.35;5.95;;;;;;;;;;5096553;28;20201;-45
2020/12/05 12:15:12;;;;;;;7.60;5.70;;;;;;;;;;5081322;28;20189;-46
2020/12/05 12:17:38;;;;;;;10.98;5.90;;;;;;;;;;5086002;28;20186;-43
2020/12/05 12:20:04;;;;;;;8.50;5.90;;;;;;;;;;5093627;28;20572;-46
2020/12/05 12:22:30;;;;;;;9.13;5.82;;;;;;;;;;5097377;28;20194;-46
2020/12/05 12:24:57;;;;;;;9.27;5.88;;;;;;;;;;5095526;28;20227;-46
2020/12/05 12:27:23;;;;;;;11.57;5.43;;;;;;;;;;5095150;28;20269;-46
2020/12/05 12:29:49;;;;;;;9.30;5.78;;;;;;;;;;5085568;28;20173;-46
2020/12/05 12:32:14;;;;;;;7.95;5.60;;;;;;;;;;5079634;28;20186;-46
2020/12/05 12:34:41;;;;;;;8.18;5.25;;;;;;;;;;5096199;28;20202;-46
2020/12/05 12:37:07;;;;;;;7.43;5.40;;;;;;;;;;5110875;28;20176;-46
2020/12/05 12:39:32;;;;;;;6.53;5.25;;;;;;;;;;5091770;28;20571;-46
2020/12/05 12:41:58;;;;;;;10.40;5.60;;;;;;;;;;5095543;28;20213;-47
2020/12/05 12:44:24;;;;;;;9.10;5.78;;;;;;;;;;5091694;28;20185;-46
2020/12/05 12:46:56;;;;;;;6.25;5.50;;;;;;;;;;5088045;28;20597;-46
2020/12/05 12:49:22;;;;;;;6.75;5.45;;;;;;;;;;5080088;28;20186;-46
2020/12/05 12:51:48;;;;;;;8.32;5.82;;;;;;;;;;5096836;28;20497;-46
2020/12/05 12:54:14;;;;;;;6.47;5.50;;;;;;;;;;5096501;28;20170;-46
2020/12/05 12:56:41;;;;;;;8.65;5.53;;;;;;;;;;5097290;28;20212;-46
2020/12/05 12:59:07;;;;;;;7.60;5.28;;;;;;;;;;5095472;28;20181;-46
2020/12/05 13:01:33;;;;;;;8.07;6.20;;;;;;;;;;5088063;28;20556;-47
2020/12/05 13:03:59;;;;;;;7.28;5.70;;;;;;;;;;5082986;28;20205;-46
2020/12/05 13:06:25;;;;;;;6.68;5.55;;;;;;;;;;5089704;28;20182;-46
2020/12/05 13:08:51;;;;;;;6.53;5.18;;;;;;;;;;5096221;28;20173;-46
2020/12/05 13:11:17;;;;;;;7.03;5.13;;;;;;;;;;5098242;28;20232;-46
2020/12/05 13:13:44;;;;;;;7.07;5.18;;;;;;;;;;5094530;28;20178;-46
2020/12/05 13:16:18;;;;;;;7.45;5.57;;;;;;;;;;5095560;28;20232;-46
2020/12/05 13:18:44;;;;;;;5.82;5.13;;;;;;;;;;5096540;28;20185;-46
2020/12/05 13:21:10;;;;;;;6.25;5.38;;;;;;;;;;5090245;28;20206;-43
2020/12/05 13:23:36;;;;;;;7.10;5.50;;;;;;;;;;5094016;28;20200;-42
2020/12/05 13:26:02;;;;;;;7.22;4.90;;;;;;;;;;5088019;28;20178;-42
2020/12/05 13:28:28;;;;;;;8.48;5.85;;;;;;;;;;5095950;28;20182;-42
2020/12/05 13:30:54;;;;;;;7.90;5.40;;;;;;;;;;5094724;28;20196;-44
2020/12/05 13:33:20;;;;;;;7.75;5.53;;;;;;;;;;5093488;28;20189;-42
2020/12/05 13:35:46;;;;;;;5.88;4.80;;;;;;;;;;5078011;28;20183;-43
2020/12/05 13:38:12;;;;;;;6.60;5.13;;;;;;;;;;5088433;28;20296;-44
2020/12/05 13:40:38;;;;;;;6.30;4.88;;;;;;;;;;5095909;28;20204;-42
2020/12/05 13:43:04;;;;;;;9.52;5.30;;;;;;;;;;5093656;28;20209;-44
2020/12/05 13:45:30;;;;;;;5.82;4.82;;;;;;;;;;5095119;28;20256;-45
2020/12/05 13:47:56;;;;;;;6.63;5.30;;;;;;;;;;5096100;28;20186;-45
2020/12/05 13:50:22;;;;;;;6.55;4.80;;;;;;;;;;5081739;28;20239;-45
2020/12/05 13:52:48;;;;;;;5.60;4.80;;;;;;;;;;5078533;28;20585;-45
2020/12/05 13:55:14;;;;;;;5.95;4.70;;;;;;;;;;5075726;28;20179;-45
2020/12/05 13:57:41;;;;;;;5.35;4.75;;;;;;;;;;5083183;28;20221;-44
2020/12/05 14:00:07;;;;;;;6.85;5.10;;;;;;;;;;5075911;28;20568;-43
2020/12/05 14:02:33;;;;;;;6.40;4.55;;;;;;;;;;5082597;28;20179;-44
2020/12/05 14:04:59;;;;;;;5.78;4.80;;;;;;;;;;5074977;28;20194;-44
2020/12/05 14:07:26;;;;;;;4.88;4.35;;;;;;;;;;5075386;28;20604;-48
2020/12/05 14:09:52;;;;;;;7.05;5.10;;;;;;;;;;5093054;28;20458;-48
2020/12/05 14:12:18;;;;;;;4.88;4.28;;;;;;;;;;5083114;28;20186;-48
2020/12/05 14:14:44;;;;;;;6.85;4.65;;;;;;;;;;5095340;28;20186;-48
2020/12/05 14:17:10;;;;;;;5.75;4.70;;;;;;;;;;5095714;28;20185;-48
2020/12/05 14:19:41;;;;;;;6.43;4.47;;;;;;;;;;5095206;28;20619;-48
2020/12/05 14:22:07;;;;;;;7.70;4.45;;;;;;;;;;5092564;28;20244;-48
2020/12/05 14:24:33;;;;;;;9.90;5.00;;;;;;;;;;5077793;28;20195;-48
2020/12/05 14:27:00;;;;;;;6.13;5.22;;;;;;;;;;5101683;28;20185;-47
2020/12/05 14:29:25;;;;;;;8.48;4.55;;;;;;;;;;5075209;28;20502;-47
2020/12/05 14:31:53;;;;;;;9.18;4.43;;;;;;;;;;5075386;28;20171;-48
2020/12/05 14:34:19;;;;;;;6.57;3.97;;;;;;;;;;5090345;28;20209;-42
2020/12/05 14:36:45;;;;;;;5.07;4.15;;;;;;;;;;5101692;28;20173;-43
2020/12/05 14:39:11;;;;;;;5.55;4.70;;;;;;;;;;5088359;28;20220;-44
2020/12/05 14:41:37;;;;;;;5.88;4.43;;;;;;;;;;5081579;28;20216;-44
2020/12/05 14:44:03;;;;;;;5.57;4.32;;;;;;;;;;5093819;28;20197;-44